This is the latest recevied weather packets stored in our database for station/object KE2A-13. If no packets are shown the sender has not sent any weather packets the latest 1 day(s).
| Time | Temp. | Humidity | Pressure | Rain* | Wind** | Luminosity | Snow |
|---|---|---|---|---|---|---|---|
| 1778013000 | 25.56° C | 47% | 1007 hPa | 1.52 mm | 0.89 m/s, 184° | - | - |
| 1778012100 | 25.56° C | 47% | 1007 hPa | 1.52 mm | 1.34 m/s, 206° | - | - |
| 1778011200 | 26.11° C | 44% | 1007.1 hPa | 1.52 mm | 0.89 m/s, 243° | - | - |
| 1778010300 | 25.56° C | 48% | 1007.2 hPa | 1.52 mm | 0.89 m/s, 213° | - | - |
| 1778009400 | 26.11° C | 49% | 1007.5 hPa | 1.52 mm | 1.34 m/s, 174° | - | - |
| 1778008500 | 27.22° C | 45% | 1007.4 hPa | 1.52 mm | 0.89 m/s, 183° | - | - |
| 1778007600 | 26.67° C | 44% | 1007.6 hPa | 1.52 mm | 0.45 m/s, 253° | - | - |
| 1778006700 | 26.11° C | 46% | 1007.9 hPa | 1.52 mm | 1.34 m/s, 270° | - | - |
| 1778005800 | 26.11° C | 47% | 1008.1 hPa | 1.52 mm | 0.89 m/s, 236° | - | - |
| 1778004900 | 26.11° C | 49% | 1008.3 hPa | 1.52 mm | 0.89 m/s, 178° | - | - |
| 1778004000 | 26.67° C | 47% | 1008.4 hPa | 1.52 mm | 0.89 m/s, 224° | - | - |
| 1778003100 | 25.56° C | 48% | 1008.4 hPa | 1.52 mm | 0.89 m/s, 164° | - | - |
| 1778002200 | 25.56° C | 48% | 1008.6 hPa | 1.52 mm | 0.89 m/s, 231° | - | - |
| 1778001300 | 25.56° C | 50% | 1008.7 hPa | 1.52 mm | 1.34 m/s, 199° | - | - |
| 1778000400 | 26.11° C | 49% | 1008.8 hPa | 1.52 mm | 1.34 m/s, 216° | - | - |
| 1777999500 | 26.67° C | 48% | 1009 hPa | 1.52 mm | 1.34 m/s, 171° | - | - |
| 1777998600 | 26.67° C | 49% | 1009.3 hPa | 1.52 mm | 0.89 m/s, 160° | - | - |
| 1777997700 | 26.11° C | 47% | 1009.4 hPa | 1.52 mm | 0.89 m/s, 228° | - | - |
| 1777996800 | 25.56° C | 47% | 1009.8 hPa | 1.52 mm | 1.34 m/s, 192° | - | - |
| 1777995900 | 25° C | 50% | 1009.8 hPa | 1.52 mm | 1.34 m/s, 135° | - | - |
| 1777995000 | 24.44° C | 51% | 1010 hPa | 1.52 mm | 0.45 m/s, 176° | - | - |
| 1777994100 | 23.89° C | 51% | 1010.1 hPa | 1.52 mm | 0.89 m/s, 167° | - | - |
| 1777993200 | 23.89° C | 52% | 1010.2 hPa | 1.52 mm | 0.89 m/s, 193° | - | - |
| 1777992300 | 22.78° C | 54% | 1010.4 hPa | 1.52 mm | 0.89 m/s, 179° | - | - |
| 1777991400 | 22.22° C | 57% | 1010.6 hPa | 1.52 mm | 0.89 m/s, 166° | - | - |
* Rain since midnight (hover to see other rain measurements)
** Current wind speed in m/s (hover to see current wind gust speed)